sensor_id;sensor_type;location;lat;lon;timestamp;P1;durP1;ratioP1;P2;durP2;ratioP2
32186;SDS011;18686;53.084;8.872;2023-04-06T00:00:08;8.23;;;6.47;;
32186;SDS011;18686;53.084;8.872;2023-04-06T00:02:37;8.13;;;6.68;;
32186;SDS011;18686;53.084;8.872;2023-04-06T00:05:05;7.97;;;6.40;;
32186;SDS011;18686;53.084;8.872;2023-04-06T00:07:35;9.27;;;6.88;;
32186;SDS011;18686;53.084;8.872;2023-04-06T00:10:04;8.93;;;7.15;;
32186;SDS011;18686;53.084;8.872;2023-04-06T00:12:33;7.30;;;6.40;;
32186;SDS011;18686;53.084;8.872;2023-04-06T00:15:01;8.57;;;6.95;;
32186;SDS011;18686;53.084;8.872;2023-04-06T00:17:32;7.63;;;6.15;;
32186;SDS011;18686;53.084;8.872;2023-04-06T00:20:00;7.70;;;6.32;;
32186;SDS011;18686;53.084;8.872;2023-04-06T00:22:28;8.00;;;6.45;;
32186;SDS011;18686;53.084;8.872;2023-04-06T00:24:58;8.88;;;6.85;;
32186;SDS011;18686;53.084;8.872;2023-04-06T00:27:26;9.18;;;6.82;;
32186;SDS011;18686;53.084;8.872;2023-04-06T00:29:55;9.50;;;6.63;;
32186;SDS011;18686;53.084;8.872;2023-04-06T00:32:23;10.57;;;7.72;;
32186;SDS011;18686;53.084;8.872;2023-04-06T00:34:52;11.10;;;8.50;;
32186;SDS011;18686;53.084;8.872;2023-04-06T00:37:20;8.60;;;7.25;;
32186;SDS011;18686;53.084;8.872;2023-04-06T00:39:48;10.00;;;7.40;;
32186;SDS011;18686;53.084;8.872;2023-04-06T00:42:19;9.93;;;7.63;;
32186;SDS011;18686;53.084;8.872;2023-04-06T00:44:52;8.68;;;7.57;;
32186;SDS011;18686;53.084;8.872;2023-04-06T00:47:21;10.85;;;8.02;;
32186;SDS011;18686;53.084;8.872;2023-04-06T00:49:51;10.68;;;7.85;;
32186;SDS011;18686;53.084;8.872;2023-04-06T00:52:20;9.30;;;8.25;;
32186;SDS011;18686;53.084;8.872;2023-04-06T00:54:48;12.32;;;9.88;;
32186;SDS011;18686;53.084;8.872;2023-04-06T00:57:20;12.00;;;9.00;;
32186;SDS011;18686;53.084;8.872;2023-04-06T00:59:53;11.25;;;9.00;;
32186;SDS011;18686;53.084;8.872;2023-04-06T01:02:23;11.80;;;9.48;;
32186;SDS011;18686;53.084;8.872;2023-04-06T01:04:52;11.40;;;8.57;;
32186;SDS011;18686;53.084;8.872;2023-04-06T01:07:29;11.38;;;8.70;;
32186;SDS011;18686;53.084;8.872;2023-04-06T01:10:24;12.45;;;9.27;;
32186;SDS011;18686;53.084;8.872;2023-04-06T01:13:01;11.82;;;8.90;;
32186;SDS011;18686;53.084;8.872;2023-04-06T01:15:53;11.05;;;8.82;;
32186;SDS011;18686;53.084;8.872;2023-04-06T01:18:37;13.38;;;9.52;;
32186;SDS011;18686;53.084;8.872;2023-04-06T01:21:13;13.35;;;9.98;;
32186;SDS011;18686;53.084;8.872;2023-04-06T01:24:06;10.68;;;8.82;;
32186;SDS011;18686;53.084;8.872;2023-04-06T01:26:55;10.93;;;8.85;;
32186;SDS011;18686;53.084;8.872;2023-04-06T01:29:27;11.85;;;8.65;;
32186;SDS011;18686;53.084;8.872;2023-04-06T01:31:56;12.52;;;8.85;;
32186;SDS011;18686;53.084;8.872;2023-04-06T01:34:24;11.90;;;9.23;;
32186;SDS011;18686;53.084;8.872;2023-04-06T01:36:55;12.27;;;9.70;;
32186;SDS011;18686;53.084;8.872;2023-04-06T01:39:29;12.85;;;9.88;;
32186;SDS011;18686;53.084;8.872;2023-04-06T01:41:59;12.43;;;10.07;;
32186;SDS011;18686;53.084;8.872;2023-04-06T01:44:30;12.63;;;9.70;;
32186;SDS011;18686;53.084;8.872;2023-04-06T01:47:08;15.00;;;9.48;;
32186;SDS011;18686;53.084;8.872;2023-04-06T01:49:36;11.75;;;10.30;;
32186;SDS011;18686;53.084;8.872;2023-04-06T01:52:04;11.27;;;9.27;;
32186;SDS011;18686;53.084;8.872;2023-04-06T01:54:37;11.55;;;9.20;;
32186;SDS011;18686;53.084;8.872;2023-04-06T01:57:14;11.00;;;9.13;;
32186;SDS011;18686;53.084;8.872;2023-04-06T01:59:50;11.63;;;8.93;;
32186;SDS011;18686;53.084;8.872;2023-04-06T02:02:24;9.75;;;8.60;;
32186;SDS011;18686;53.084;8.872;2023-04-06T02:05:00;11.57;;;8.32;;
32186;SDS011;18686;53.084;8.872;2023-04-06T02:07:29;11.30;;;9.02;;
32186;SDS011;18686;53.084;8.872;2023-04-06T02:10:00;13.82;;;9.20;;
32186;SDS011;18686;53.084;8.872;2023-04-06T02:12:34;13.32;;;8.20;;
32186;SDS011;18686;53.084;8.872;2023-04-06T02:15:05;10.48;;;8.68;;
32186;SDS011;18686;53.084;8.872;2023-04-06T02:17:34;11.60;;;8.93;;
32186;SDS011;18686;53.084;8.872;2023-04-06T02:20:03;10.98;;;8.93;;
32186;SDS011;18686;53.084;8.872;2023-04-06T02:22:34;13.00;;;9.82;;
32186;SDS011;18686;53.084;8.872;2023-04-06T02:25:04;11.20;;;8.63;;
32186;SDS011;18686;53.084;8.872;2023-04-06T02:27:33;10.38;;;8.40;;
32186;SDS011;18686;53.084;8.872;2023-04-06T02:30:01;10.93;;;8.63;;
32186;SDS011;18686;53.084;8.872;2023-04-06T02:32:30;10.57;;;7.72;;
32186;SDS011;18686;53.084;8.872;2023-04-06T02:34:59;9.10;;;7.68;;
32186;SDS011;18686;53.084;8.872;2023-04-06T02:37:31;9.63;;;8.45;;
32186;SDS011;18686;53.084;8.872;2023-04-06T02:39:59;10.68;;;8.63;;
32186;SDS011;18686;53.084;8.872;2023-04-06T02:42:31;11.05;;;8.82;;
32186;SDS011;18686;53.084;8.872;2023-04-06T02:44:59;13.40;;;8.68;;
32186;SDS011;18686;53.084;8.872;2023-04-06T02:47:35;10.88;;;8.65;;
32186;SDS011;18686;53.084;8.872;2023-04-06T02:50:04;12.50;;;8.68;;
32186;SDS011;18686;53.084;8.872;2023-04-06T02:52:38;10.30;;;8.75;;
32186;SDS011;18686;53.084;8.872;2023-04-06T02:55:08;12.90;;;9.63;;
32186;SDS011;18686;53.084;8.872;2023-04-06T02:57:38;11.07;;;8.80;;
32186;SDS011;18686;53.084;8.872;2023-04-06T03:00:07;13.15;;;8.80;;
32186;SDS011;18686;53.084;8.872;2023-04-06T03:02:39;12.05;;;8.98;;
32186;SDS011;18686;53.084;8.872;2023-04-06T03:05:11;13.52;;;9.55;;
32186;SDS011;18686;53.084;8.872;2023-04-06T03:07:42;13.48;;;9.43;;
32186;SDS011;18686;53.084;8.872;2023-04-06T03:10:18;11.35;;;8.93;;
32186;SDS011;18686;53.084;8.872;2023-04-06T03:12:48;10.73;;;9.07;;
32186;SDS011;18686;53.084;8.872;2023-04-06T03:15:43;10.52;;;8.65;;
32186;SDS011;18686;53.084;8.872;2023-04-06T03:18:15;11.85;;;9.25;;
32186;SDS011;18686;53.084;8.872;2023-04-06T03:20:46;12.68;;;8.20;;
32186;SDS011;18686;53.084;8.872;2023-04-06T03:23:16;13.27;;;9.57;;
32186;SDS011;18686;53.084;8.872;2023-04-06T03:25:51;11.45;;;9.02;;
32186;SDS011;18686;53.084;8.872;2023-04-06T03:28:21;10.98;;;9.30;;
32186;SDS011;18686;53.084;8.872;2023-04-06T03:30:56;13.70;;;9.57;;
32186;SDS011;18686;53.084;8.872;2023-04-06T03:33:54;12.70;;;9.88;;
32186;SDS011;18686;53.084;8.872;2023-04-06T03:36:27;13.82;;;10.63;;
32186;SDS011;18686;53.084;8.872;2023-04-06T03:38:58;13.48;;;9.98;;
32186;SDS011;18686;53.084;8.872;2023-04-06T03:41:26;13.65;;;9.93;;
32186;SDS011;18686;53.084;8.872;2023-04-06T03:44:18;12.55;;;10.48;;
32186;SDS011;18686;53.084;8.872;2023-04-06T03:46:47;13.57;;;11.02;;
32186;SDS011;18686;53.084;8.872;2023-04-06T03:49:16;12.45;;;10.20;;
32186;SDS011;18686;53.084;8.872;2023-04-06T03:51:48;11.63;;;9.73;;
32186;SDS011;18686;53.084;8.872;2023-04-06T03:54:16;13.85;;;9.98;;
32186;SDS011;18686;53.084;8.872;2023-04-06T03:56:44;13.57;;;10.07;;
32186;SDS011;18686;53.084;8.872;2023-04-06T03:59:13;12.80;;;9.88;;
32186;SDS011;18686;53.084;8.872;2023-04-06T04:01:43;13.52;;;10.45;;
32186;SDS011;18686;53.084;8.872;2023-04-06T04:04:11;14.63;;;10.55;;
32186;SDS011;18686;53.084;8.872;2023-04-06T04:06:39;12.35;;;10.18;;
32186;SDS011;18686;53.084;8.872;2023-04-06T04:09:07;11.50;;;10.20;;
32186;SDS011;18686;53.084;8.872;2023-04-06T04:11:36;15.18;;;9.88;;
32186;SDS011;18686;53.084;8.872;2023-04-06T04:14:04;13.82;;;10.77;;
32186;SDS011;18686;53.084;8.872;2023-04-06T04:16:32;12.63;;;10.13;;
32186;SDS011;18686;53.084;8.872;2023-04-06T04:19:03;12.60;;;10.40;;
32186;SDS011;18686;53.084;8.872;2023-04-06T04:21:31;12.77;;;10.85;;
32186;SDS011;18686;53.084;8.872;2023-04-06T04:24:06;15.02;;;10.48;;
32186;SDS011;18686;53.084;8.872;2023-04-06T04:26:35;13.55;;;10.60;;
32186;SDS011;18686;53.084;8.872;2023-04-06T04:29:05;13.15;;;10.50;;
32186;SDS011;18686;53.084;8.872;2023-04-06T04:31:35;10.88;;;9.68;;
32186;SDS011;18686;53.084;8.872;2023-04-06T04:34:12;12.43;;;10.00;;
32186;SDS011;18686;53.084;8.872;2023-04-06T04:36:41;14.52;;;10.20;;
32186;SDS011;18686;53.084;8.872;2023-04-06T04:39:15;14.93;;;10.20;;
32186;SDS011;18686;53.084;8.872;2023-04-06T04:41:49;10.40;;;9.30;;
32186;SDS011;18686;53.084;8.872;2023-04-06T04:44:18;16.88;;;11.70;;
32186;SDS011;18686;53.084;8.872;2023-04-06T04:46:46;12.80;;;10.98;;
32186;SDS011;18686;53.084;8.872;2023-04-06T04:49:19;12.75;;;10.75;;
32186;SDS011;18686;53.084;8.872;2023-04-06T04:51:49;11.98;;;10.70;;
32186;SDS011;18686;53.084;8.872;2023-04-06T04:54:26;12.07;;;10.00;;
32186;SDS011;18686;53.084;8.872;2023-04-06T04:56:55;16.00;;;10.43;;
32186;SDS011;18686;53.084;8.872;2023-04-06T04:59:37;17.00;;;10.73;;
32186;SDS011;18686;53.084;8.872;2023-04-06T05:02:14;13.25;;;10.25;;
32186;SDS011;18686;53.084;8.872;2023-04-06T05:04:59;12.43;;;9.85;;
32186;SDS011;18686;53.084;8.872;2023-04-06T05:07:28;12.73;;;9.90;;
32186;SDS011;18686;53.084;8.872;2023-04-06T05:10:00;14.75;;;10.70;;
32186;SDS011;18686;53.084;8.872;2023-04-06T05:12:34;13.90;;;10.55;;
32186;SDS011;18686;53.084;8.872;2023-04-06T05:15:06;13.88;;;10.60;;
32186;SDS011;18686;53.084;8.872;2023-04-06T05:17:36;16.15;;;11.40;;
32186;SDS011;18686;53.084;8.872;2023-04-06T05:20:08;14.98;;;11.50;;
32186;SDS011;18686;53.084;8.872;2023-04-06T05:22:44;13.13;;;10.88;;
32186;SDS011;18686;53.084;8.872;2023-04-06T05:25:12;15.98;;;12.27;;
32186;SDS011;18686;53.084;8.872;2023-04-06T05:27:42;27.90;;;18.80;;
32186;SDS011;18686;53.084;8.872;2023-04-06T05:30:31;18.02;;;13.18;;
32186;SDS011;18686;53.084;8.872;2023-04-06T05:32:59;14.35;;;10.70;;
32186;SDS011;18686;53.084;8.872;2023-04-06T05:35:37;13.05;;;9.68;;
32186;SDS011;18686;53.084;8.872;2023-04-06T05:38:10;13.77;;;9.88;;
32186;SDS011;18686;53.084;8.872;2023-04-06T05:40:38;13.70;;;10.10;;
32186;SDS011;18686;53.084;8.872;2023-04-06T05:43:11;11.93;;;9.55;;
32186;SDS011;18686;53.084;8.872;2023-04-06T05:45:43;15.45;;;8.70;;
32186;SDS011;18686;53.084;8.872;2023-04-06T05:48:12;14.60;;;9.43;;
32186;SDS011;18686;53.084;8.872;2023-04-06T05:50:42;9.75;;;8.75;;
32186;SDS011;18686;53.084;8.872;2023-04-06T05:53:13;11.85;;;8.38;;
32186;SDS011;18686;53.084;8.872;2023-04-06T05:55:49;11.52;;;7.85;;
32186;SDS011;18686;53.084;8.872;2023-04-06T05:58:19;10.55;;;7.60;;
32186;SDS011;18686;53.084;8.872;2023-04-06T06:00:50;7.93;;;6.72;;
32186;SDS011;18686;53.084;8.872;2023-04-06T06:03:26;10.82;;;7.70;;
32186;SDS011;18686;53.084;8.872;2023-04-06T06:06:00;10.32;;;7.45;;
32186;SDS011;18686;53.084;8.872;2023-04-06T06:08:52;9.88;;;7.25;;
32186;SDS011;18686;53.084;8.872;2023-04-06T06:11:21;8.18;;;6.70;;
32186;SDS011;18686;53.084;8.872;2023-04-06T06:13:49;11.52;;;7.00;;
32186;SDS011;18686;53.084;8.872;2023-04-06T06:16:17;9.98;;;6.82;;
32186;SDS011;18686;53.084;8.872;2023-04-06T06:18:47;9.05;;;6.63;;
32186;SDS011;18686;53.084;8.872;2023-04-06T06:21:17;9.65;;;6.65;;
32186;SDS011;18686;53.084;8.872;2023-04-06T06:23:45;9.02;;;6.50;;
32186;SDS011;18686;53.084;8.872;2023-04-06T06:26:18;9.35;;;6.35;;
32186;SDS011;18686;53.084;8.872;2023-04-06T06:28:49;11.85;;;6.45;;
32186;SDS011;18686;53.084;8.872;2023-04-06T06:31:17;9.25;;;5.93;;
32186;SDS011;18686;53.084;8.872;2023-04-06T06:33:47;9.13;;;6.25;;
32186;SDS011;18686;53.084;8.872;2023-04-06T06:36:19;9.00;;;5.50;;
32186;SDS011;18686;53.084;8.872;2023-04-06T06:38:48;8.60;;;5.35;;
32186;SDS011;18686;53.084;8.872;2023-04-06T06:41:20;7.38;;;5.40;;
32186;SDS011;18686;53.084;8.872;2023-04-06T06:43:49;10.27;;;5.43;;
32186;SDS011;18686;53.084;8.872;2023-04-06T06:46:17;9.05;;;4.88;;
32186;SDS011;18686;53.084;8.872;2023-04-06T06:48:46;9.55;;;5.70;;
32186;SDS011;18686;53.084;8.872;2023-04-06T06:51:14;6.93;;;5.05;;
32186;SDS011;18686;53.084;8.872;2023-04-06T06:53:47;8.00;;;5.40;;
32186;SDS011;18686;53.084;8.872;2023-04-06T06:56:15;10.10;;;5.15;;
32186;SDS011;18686;53.084;8.872;2023-04-06T06:58:44;8.10;;;5.03;;
32186;SDS011;18686;53.084;8.872;2023-04-06T07:01:12;10.05;;;5.35;;
32186;SDS011;18686;53.084;8.872;2023-04-06T07:03:41;9.50;;;5.43;;
32186;SDS011;18686;53.084;8.872;2023-04-06T07:06:09;7.25;;;4.90;;
32186;SDS011;18686;53.084;8.872;2023-04-06T07:08:39;7.00;;;5.40;;
32186;SDS011;18686;53.084;8.872;2023-04-06T07:11:09;5.47;;;4.38;;
32186;SDS011;18686;53.084;8.872;2023-04-06T07:13:37;8.00;;;4.97;;
32186;SDS011;18686;53.084;8.872;2023-04-06T07:16:05;7.55;;;4.88;;
32186;SDS011;18686;53.084;8.872;2023-04-06T07:18:34;10.48;;;4.95;;
32186;SDS011;18686;53.084;8.872;2023-04-06T07:21:03;8.25;;;4.90;;
32186;SDS011;18686;53.084;8.872;2023-04-06T07:23:32;7.97;;;5.15;;
32186;SDS011;18686;53.084;8.872;2023-04-06T07:26:00;10.48;;;5.60;;
32186;SDS011;18686;53.084;8.872;2023-04-06T07:28:30;9.23;;;5.05;;
32186;SDS011;18686;53.084;8.872;2023-04-06T07:31:00;8.82;;;6.03;;
32186;SDS011;18686;53.084;8.872;2023-04-06T07:33:29;9.10;;;5.72;;
32186;SDS011;18686;53.084;8.872;2023-04-06T07:35:57;8.52;;;5.43;;
32186;SDS011;18686;53.084;8.872;2023-04-06T07:38:26;13.45;;;5.45;;
32186;SDS011;18686;53.084;8.872;2023-04-06T07:40:55;8.10;;;5.05;;
32186;SDS011;18686;53.084;8.872;2023-04-06T07:43:24;7.75;;;5.47;;
32186;SDS011;18686;53.084;8.872;2023-04-06T07:45:53;10.40;;;5.53;;
32186;SDS011;18686;53.084;8.872;2023-04-06T07:48:23;8.77;;;5.65;;
32186;SDS011;18686;53.084;8.872;2023-04-06T07:50:51;7.63;;;4.82;;
32186;SDS011;18686;53.084;8.872;2023-04-06T07:53:28;11.27;;;5.50;;
32186;SDS011;18686;53.084;8.872;2023-04-06T07:55:57;7.70;;;5.10;;
32186;SDS011;18686;53.084;8.872;2023-04-06T07:58:26;11.55;;;5.28;;
32186;SDS011;18686;53.084;8.872;2023-04-06T08:00:55;6.65;;;5.47;;
32186;SDS011;18686;53.084;8.872;2023-04-06T08:03:24;6.40;;;4.72;;
32186;SDS011;18686;53.084;8.872;2023-04-06T08:05:52;6.82;;;4.60;;
32186;SDS011;18686;53.084;8.872;2023-04-06T08:08:21;7.75;;;4.85;;
32186;SDS011;18686;53.084;8.872;2023-04-06T08:10:49;10.40;;;5.55;;
32186;SDS011;18686;53.084;8.872;2023-04-06T08:13:18;8.32;;;5.30;;
32186;SDS011;18686;53.084;8.872;2023-04-06T08:15:46;12.18;;;5.18;;
32186;SDS011;18686;53.084;8.872;2023-04-06T08:18:16;10.25;;;4.82;;
32186;SDS011;18686;53.084;8.872;2023-04-06T08:20:44;8.25;;;5.32;;
32186;SDS011;18686;53.084;8.872;2023-04-06T08:23:13;8.48;;;4.78;;
32186;SDS011;18686;53.084;8.872;2023-04-06T08:25:44;6.03;;;4.45;;
32186;SDS011;18686;53.084;8.872;2023-04-06T08:28:12;9.15;;;4.80;;
32186;SDS011;18686;53.084;8.872;2023-04-06T08:30:41;11.70;;;5.00;;
32186;SDS011;18686;53.084;8.872;2023-04-06T08:33:10;6.32;;;4.70;;
32186;SDS011;18686;53.084;8.872;2023-04-06T08:35:39;5.18;;;4.40;;
32186;SDS011;18686;53.084;8.872;2023-04-06T08:38:08;7.93;;;5.07;;
32186;SDS011;18686;53.084;8.872;2023-04-06T08:40:36;7.78;;;4.95;;
32186;SDS011;18686;53.084;8.872;2023-04-06T08:43:06;8.93;;;4.22;;
32186;SDS011;18686;53.084;8.872;2023-04-06T08:45:38;7.05;;;5.15;;
32186;SDS011;18686;53.084;8.872;2023-04-06T08:48:08;7.30;;;5.32;;
32186;SDS011;18686;53.084;8.872;2023-04-06T08:50:38;8.40;;;5.15;;
32186;SDS011;18686;53.084;8.872;2023-04-06T08:53:08;8.27;;;5.85;;
32186;SDS011;18686;53.084;8.872;2023-04-06T08:55:38;8.38;;;5.40;;
32186;SDS011;18686;53.084;8.872;2023-04-06T08:58:07;7.45;;;5.18;;
32186;SDS011;18686;53.084;8.872;2023-04-06T09:00:37;10.38;;;4.60;;
32186;SDS011;18686;53.084;8.872;2023-04-06T09:03:06;8.82;;;5.05;;
32186;SDS011;18686;53.084;8.872;2023-04-06T09:05:36;7.22;;;4.78;;
32186;SDS011;18686;53.084;8.872;2023-04-06T09:08:07;6.32;;;4.97;;
32186;SDS011;18686;53.084;8.872;2023-04-06T09:10:37;7.05;;;4.80;;
32186;SDS011;18686;53.084;8.872;2023-04-06T09:13:08;7.63;;;4.78;;
32186;SDS011;18686;53.084;8.872;2023-04-06T09:15:36;5.47;;;4.47;;
32186;SDS011;18686;53.084;8.872;2023-04-06T09:18:05;6.00;;;4.35;;
32186;SDS011;18686;53.084;8.872;2023-04-06T09:20:34;6.32;;;4.20;;
32186;SDS011;18686;53.084;8.872;2023-04-06T09:23:02;6.03;;;4.22;;
32186;SDS011;18686;53.084;8.872;2023-04-06T09:25:32;5.65;;;4.85;;
32186;SDS011;18686;53.084;8.872;2023-04-06T09:28:01;5.70;;;4.43;;
32186;SDS011;18686;53.084;8.872;2023-04-06T09:30:34;14.00;;;4.43;;
32186;SDS011;18686;53.084;8.872;2023-04-06T09:33:04;7.53;;;4.55;;
32186;SDS011;18686;53.084;8.872;2023-04-06T09:35:33;7.55;;;4.70;;
32186;SDS011;18686;53.084;8.872;2023-04-06T09:38:10;6.60;;;4.68;;
32186;SDS011;18686;53.084;8.872;2023-04-06T09:40:48;7.57;;;4.78;;
32186;SDS011;18686;53.084;8.872;2023-04-06T09:43:27;7.25;;;4.70;;
32186;SDS011;18686;53.084;8.872;2023-04-06T09:45:55;8.38;;;5.47;;
32186;SDS011;18686;53.084;8.872;2023-04-06T09:48:25;7.40;;;4.97;;
32186;SDS011;18686;53.084;8.872;2023-04-06T09:50:57;7.35;;;5.47;;
32186;SDS011;18686;53.084;8.872;2023-04-06T09:56:02;7.38;;;5.57;;
32186;SDS011;18686;53.084;8.872;2023-04-06T09:58:36;6.95;;;5.20;;
32186;SDS011;18686;53.084;8.872;2023-04-06T10:01:09;8.88;;;5.70;;
32186;SDS011;18686;53.084;8.872;2023-04-06T10:06:13;17.30;;;6.68;;
32186;SDS011;18686;53.084;8.872;2023-04-06T10:08:45;9.27;;;6.50;;
32186;SDS011;18686;53.084;8.872;2023-04-06T10:11:19;10.93;;;5.50;;
32186;SDS011;18686;53.084;8.872;2023-04-06T10:13:47;11.75;;;6.88;;
32186;SDS011;18686;53.084;8.872;2023-04-06T10:16:16;10.38;;;5.95;;
32186;SDS011;18686;53.084;8.872;2023-04-06T10:18:46;7.25;;;5.47;;
32186;SDS011;18686;53.084;8.872;2023-04-06T10:21:19;7.50;;;5.97;;
32186;SDS011;18686;53.084;8.872;2023-04-06T10:23:51;6.88;;;6.07;;
32186;SDS011;18686;53.084;8.872;2023-04-06T10:26:23;9.18;;;6.20;;
32186;SDS011;18686;53.084;8.872;2023-04-06T10:28:51;10.48;;;6.45;;
32186;SDS011;18686;53.084;8.872;2023-04-06T10:31:24;9.40;;;6.13;;
32186;SDS011;18686;53.084;8.872;2023-04-06T10:33:54;8.23;;;6.27;;
32186;SDS011;18686;53.084;8.872;2023-04-06T10:36:23;6.63;;;5.10;;
32186;SDS011;18686;53.084;8.872;2023-04-06T10:38:53;6.10;;;5.50;;
32186;SDS011;18686;53.084;8.872;2023-04-06T10:41:24;6.18;;;5.55;;
32186;SDS011;18686;53.084;8.872;2023-04-06T10:44:00;7.13;;;6.43;;
32186;SDS011;18686;53.084;8.872;2023-04-06T10:46:29;6.05;;;5.35;;
32186;SDS011;18686;53.084;8.872;2023-04-06T10:49:09;10.15;;;5.93;;
32186;SDS011;18686;53.084;8.872;2023-04-06T10:51:38;7.90;;;6.43;;
32186;SDS011;18686;53.084;8.872;2023-04-06T10:54:07;9.82;;;6.40;;
32186;SDS011;18686;53.084;8.872;2023-04-06T10:56:38;8.93;;;5.82;;
32186;SDS011;18686;53.084;8.872;2023-04-06T10:59:06;7.07;;;6.38;;
32186;SDS011;18686;53.084;8.872;2023-04-06T11:01:34;6.53;;;5.70;;
32186;SDS011;18686;53.084;8.872;2023-04-06T11:04:03;7.38;;;5.90;;
32186;SDS011;18686;53.084;8.872;2023-04-06T11:06:32;6.65;;;5.75;;
32186;SDS011;18686;53.084;8.872;2023-04-06T11:09:00;8.07;;;4.63;;
32186;SDS011;18686;53.084;8.872;2023-04-06T11:11:28;8.13;;;6.03;;
32186;SDS011;18686;53.084;8.872;2023-04-06T11:13:58;7.72;;;5.85;;
32186;SDS011;18686;53.084;8.872;2023-04-06T11:16:30;6.70;;;5.60;;
32186;SDS011;18686;53.084;8.872;2023-04-06T11:18:59;10.48;;;6.43;;
32186;SDS011;18686;53.084;8.872;2023-04-06T11:21:33;6.40;;;5.35;;
32186;SDS011;18686;53.084;8.872;2023-04-06T11:24:04;5.82;;;5.28;;
32186;SDS011;18686;53.084;8.872;2023-04-06T11:26:37;8.25;;;5.45;;
32186;SDS011;18686;53.084;8.872;2023-04-06T11:29:08;7.80;;;5.15;;
32186;SDS011;18686;53.084;8.872;2023-04-06T11:31:40;5.68;;;5.03;;
32186;SDS011;18686;53.084;8.872;2023-04-06T11:34:10;6.22;;;5.05;;
32186;SDS011;18686;53.084;8.872;2023-04-06T11:36:42;6.35;;;4.78;;
32186;SDS011;18686;53.084;8.872;2023-04-06T11:39:11;8.75;;;6.35;;
32186;SDS011;18686;53.084;8.872;2023-04-06T11:41:47;5.70;;;5.18;;
32186;SDS011;18686;53.084;8.872;2023-04-06T11:44:26;5.85;;;5.25;;
32186;SDS011;18686;53.084;8.872;2023-04-06T11:46:56;6.43;;;5.70;;
32186;SDS011;18686;53.084;8.872;2023-04-06T11:49:26;7.20;;;5.20;;
32186;SDS011;18686;53.084;8.872;2023-04-06T11:51:55;10.15;;;6.03;;
32186;SDS011;18686;53.084;8.872;2023-04-06T11:54:29;7.30;;;6.53;;
32186;SDS011;18686;53.084;8.872;2023-04-06T11:56:58;8.88;;;6.13;;
32186;SDS011;18686;53.084;8.872;2023-04-06T11:59:29;5.80;;;4.82;;
32186;SDS011;18686;53.084;8.872;2023-04-06T12:01:58;9.00;;;6.57;;
32186;SDS011;18686;53.084;8.872;2023-04-06T12:04:26;8.82;;;6.15;;
32186;SDS011;18686;53.084;8.872;2023-04-06T12:06:54;10.95;;;7.43;;
32186;SDS011;18686;53.084;8.872;2023-04-06T12:09:23;12.48;;;7.78;;
32186;SDS011;18686;53.084;8.872;2023-04-06T12:11:51;10.82;;;7.28;;
32186;SDS011;18686;53.084;8.872;2023-04-06T12:14:20;11.10;;;7.47;;
32186;SDS011;18686;53.084;8.872;2023-04-06T12:16:50;8.10;;;6.20;;
32186;SDS011;18686;53.084;8.872;2023-04-06T12:19:18;7.18;;;6.45;;
32186;SDS011;18686;53.084;8.872;2023-04-06T12:21:46;7.65;;;6.90;;
32186;SDS011;18686;53.084;8.872;2023-04-06T12:24:15;7.78;;;6.68;;
32186;SDS011;18686;53.084;8.872;2023-04-06T12:26:43;7.57;;;6.88;;
32186;SDS011;18686;53.084;8.872;2023-04-06T12:29:13;8.48;;;7.57;;
32186;SDS011;18686;53.084;8.872;2023-04-06T12:31:42;7.15;;;5.60;;
32186;SDS011;18686;53.084;8.872;2023-04-06T12:34:12;7.63;;;6.93;;
32186;SDS011;18686;53.084;8.872;2023-04-06T12:36:41;6.35;;;5.75;;
32186;SDS011;18686;53.084;8.872;2023-04-06T12:39:09;8.88;;;6.10;;
32186;SDS011;18686;53.084;8.872;2023-04-06T12:41:38;6.28;;;5.38;;
32186;SDS011;18686;53.084;8.872;2023-04-06T12:44:07;6.82;;;5.35;;
32186;SDS011;18686;53.084;8.872;2023-04-06T12:46:35;7.22;;;5.68;;
32186;SDS011;18686;53.084;8.872;2023-04-06T12:49:03;9.70;;;6.95;;
32186;SDS011;18686;53.084;8.872;2023-04-06T12:51:33;10.10;;;6.82;;
32186;SDS011;18686;53.084;8.872;2023-04-06T12:54:02;9.23;;;6.30;;
32186;SDS011;18686;53.084;8.872;2023-04-06T12:56:30;10.27;;;7.68;;
32186;SDS011;18686;53.084;8.872;2023-04-06T12:58:58;6.82;;;6.13;;
32186;SDS011;18686;53.084;8.872;2023-04-06T13:01:27;9.02;;;7.43;;
32186;SDS011;18686;53.084;8.872;2023-04-06T13:03:56;8.20;;;6.70;;
32186;SDS011;18686;53.084;8.872;2023-04-06T13:06:25;10.15;;;8.48;;
32186;SDS011;18686;53.084;8.872;2023-04-06T13:08:56;7.88;;;5.47;;
32186;SDS011;18686;53.084;8.872;2023-04-06T13:11:25;6.28;;;5.28;;
32186;SDS011;18686;53.084;8.872;2023-04-06T13:13:54;8.32;;;6.70;;
32186;SDS011;18686;53.084;8.872;2023-04-06T13:16:22;8.77;;;5.38;;
32186;SDS011;18686;53.084;8.872;2023-04-06T13:18:51;7.10;;;6.40;;
32186;SDS011;18686;53.084;8.872;2023-04-06T13:21:19;9.55;;;7.03;;
32186;SDS011;18686;53.084;8.872;2023-04-06T13:23:48;6.47;;;5.35;;
32186;SDS011;18686;53.084;8.872;2023-04-06T13:26:17;5.38;;;4.88;;
32186;SDS011;18686;53.084;8.872;2023-04-06T13:28:46;6.30;;;5.45;;
32186;SDS011;18686;53.084;8.872;2023-04-06T13:31:14;11.18;;;5.80;;
32186;SDS011;18686;53.084;8.872;2023-04-06T13:33:42;6.63;;;6.03;;
32186;SDS011;18686;53.084;8.872;2023-04-06T13:36:11;8.52;;;6.97;;
32186;SDS011;18686;53.084;8.872;2023-04-06T13:38:43;6.50;;;5.75;;
32186;SDS011;18686;53.084;8.872;2023-04-06T13:41:18;6.22;;;4.97;;
32186;SDS011;18686;53.084;8.872;2023-04-06T13:43:48;9.07;;;7.72;;
32186;SDS011;18686;53.084;8.872;2023-04-06T13:46:17;7.05;;;6.32;;
32186;SDS011;18686;53.084;8.872;2023-04-06T13:48:45;11.45;;;7.05;;
32186;SDS011;18686;53.084;8.872;2023-04-06T13:51:14;12.20;;;7.20;;
32186;SDS011;18686;53.084;8.872;2023-04-06T13:53:42;10.85;;;6.85;;
32186;SDS011;18686;53.084;8.872;2023-04-06T13:56:10;10.95;;;7.00;;
32186;SDS011;18686;53.084;8.872;2023-04-06T13:58:40;8.73;;;7.82;;
32186;SDS011;18686;53.084;8.872;2023-04-06T14:01:08;9.55;;;8.32;;
32186;SDS011;18686;53.084;8.872;2023-04-06T14:03:37;8.70;;;7.80;;
32186;SDS011;18686;53.084;8.872;2023-04-06T14:06:12;9.77;;;8.38;;
32186;SDS011;18686;53.084;8.872;2023-04-06T14:08:53;12.38;;;9.27;;
32186;SDS011;18686;53.084;8.872;2023-04-06T14:11:21;10.63;;;9.32;;
32186;SDS011;18686;53.084;8.872;2023-04-06T14:13:50;12.35;;;8.98;;
32186;SDS011;18686;53.084;8.872;2023-04-06T14:16:22;12.18;;;9.32;;
32186;SDS011;18686;53.084;8.872;2023-04-06T14:18:51;11.18;;;9.05;;
32186;SDS011;18686;53.084;8.872;2023-04-06T14:21:20;10.35;;;8.73;;
32186;SDS011;18686;53.084;8.872;2023-04-06T14:23:48;12.70;;;9.27;;
32186;SDS011;18686;53.084;8.872;2023-04-06T14:26:17;11.93;;;9.55;;
32186;SDS011;18686;53.084;8.872;2023-04-06T14:28:45;14.30;;;9.35;;
32186;SDS011;18686;53.084;8.872;2023-04-06T14:31:15;12.60;;;10.43;;
32186;SDS011;18686;53.084;8.872;2023-04-06T14:33:44;15.00;;;9.73;;
32186;SDS011;18686;53.084;8.872;2023-04-06T14:36:12;12.98;;;9.57;;
32186;SDS011;18686;53.084;8.872;2023-04-06T14:38:41;12.25;;;9.32;;
32186;SDS011;18686;53.084;8.872;2023-04-06T14:44:02;11.82;;;9.27;;
32186;SDS011;18686;53.084;8.872;2023-04-06T14:46:32;13.48;;;9.30;;
32186;SDS011;18686;53.084;8.872;2023-04-06T14:49:00;12.48;;;9.43;;
32186;SDS011;18686;53.084;8.872;2023-04-06T14:51:29;13.80;;;9.48;;
32186;SDS011;18686;53.084;8.872;2023-04-06T14:53:58;13.20;;;8.30;;
32186;SDS011;18686;53.084;8.872;2023-04-06T14:56:29;12.32;;;8.93;;
32186;SDS011;18686;53.084;8.872;2023-04-06T14:58:58;13.32;;;10.35;;
32186;SDS011;18686;53.084;8.872;2023-04-06T15:01:27;15.27;;;10.13;;
32186;SDS011;18686;53.084;8.872;2023-04-06T15:03:57;14.13;;;10.05;;
32186;SDS011;18686;53.084;8.872;2023-04-06T15:06:26;14.32;;;9.77;;